YXL YSCB-YMEN
Flight info
| Callsign | YXL |
|---|---|
| Flight time | 0h 48m |
| Altitude | 32000 |
| Route | DUBUS V169 TEMIS W188 COLDS V512 ESDAN |
| Aircraft | PC24/M-SBDGIRWY/LB2 |
Departure
| Time | 2026-05-01 11:11 |
|---|---|
| Airport | Canberra Airport (YSCB) |
Arrival
| Time | 2026-05-01 12:00 |
|---|---|
| Airport | Melbourne Essendon Airport (YMEN) |
| Time | Latitude | Longitude | Altitude | Speed | Heading |
|---|---|---|---|---|---|
| 2026-05-01 10:52 | -35.30374 | 149.19953 | 1882 ft | 0 kts | 124° |
| 2026-05-01 11:01 | -35.30370 | 149.19945 | 1883 ft | 0 kts | 124° |
| 2026-05-01 11:02 | -35.30370 | 149.19946 | 1882 ft | 1 kts | 113° |
| 2026-05-01 11:02 | -35.30365 | 149.19952 | 1879 ft | 2 kts | 11° |
| 2026-05-01 11:02 | -35.30359 | 149.19905 | 1880 ft | 12 kts | 259° |
| 2026-05-01 11:02 | -35.30358 | 149.19801 | 1879 ft | 12 kts | 304° |
| 2026-05-01 11:03 | -35.30308 | 149.19715 | 1877 ft | 13 kts | 306° |
| 2026-05-01 11:03 | -35.30261 | 149.19633 | 1876 ft | 9 kts | 301° |
| 2026-05-01 11:03 | -35.30240 | 149.19588 | 1876 ft | 2 kts | 298° |
| 2026-05-01 11:03 | -35.30239 | 149.19585 | 1876 ft | 0 kts | 298° |
| 2026-05-01 11:04 | -35.30226 | 149.19551 | 1876 ft | 13 kts | 290° |
| 2026-05-01 11:04 | -35.30193 | 149.19440 | 1873 ft | 14 kts | 291° |
| 2026-05-01 11:05 | -35.30158 | 149.19323 | 1871 ft | 15 kts | 289° |
| 2026-05-01 11:05 | -35.30174 | 149.19223 | 1872 ft | 11 kts | 224° |
| 2026-05-01 11:05 | -35.30198 | 149.19197 | 1872 ft | 1 kts | 220° |
| 2026-05-01 11:05 | -35.30257 | 149.19233 | 1873 ft | 16 kts | 167° |
| 2026-05-01 11:06 | -35.30357 | 149.19239 | 1876 ft | 14 kts | 180° |
| 2026-05-01 11:06 | -35.30446 | 149.19239 | 1878 ft | 12 kts | 180° |
| 2026-05-01 11:06 | -35.30528 | 149.19239 | 1878 ft | 11 kts | 180° |
| 2026-05-01 11:07 | -35.30679 | 149.19240 | 1879 ft | 10 kts | 179° |
| 2026-05-01 11:07 | -35.30755 | 149.19240 | 1877 ft | 12 kts | 180° |
| 2026-05-01 11:07 | -35.30852 | 149.19239 | 1879 ft | 16 kts | 180° |
| 2026-05-01 11:07 | -35.30962 | 149.19239 | 2250 ft | 16 kts | 180° |
| 2026-05-01 11:08 | -35.31072 | 149.19240 | 1874 ft | 16 kts | 179° |
| 2026-05-01 11:08 | -35.31180 | 149.19239 | 1873 ft | 15 kts | 180° |
| 2026-05-01 11:08 | -35.31394 | 149.19243 | 1868 ft | 12 kts | 168° |
| 2026-05-01 11:09 | -35.31449 | 149.19284 | 1868 ft | 8 kts | 126° |
| 2026-05-01 11:09 | -35.31455 | 149.19294 | 1868 ft | 0 kts | 123° |
| 2026-05-01 11:10 | -35.31467 | 149.19333 | 1869 ft | 14 kts | 102° |
| 2026-05-01 11:10 | -35.31416 | 149.19444 | 1870 ft | 20 kts | 359° |
| 2026-05-01 11:10 | -35.31019 | 149.19445 | 1876 ft | 101 kts | 360° |
| 2026-05-01 11:11 | -35.30070 | 149.19453 | 2032 ft | 162 kts | 0° |
| 2026-05-01 11:11 | -35.28827 | 149.19448 | 2503 ft | 198 kts | 0° |
| 2026-05-01 11:11 | -35.27355 | 149.19387 | 3356 ft | 221 kts | 0° |
| 2026-05-01 11:11 | -35.25720 | 149.19284 | 4042 ft | 254 kts | 359° |
| 2026-05-01 11:12 | -35.23805 | 149.19134 | 4332 ft | 289 kts | 358° |
| 2026-05-01 11:12 | -35.21920 | 149.18867 | 5345 ft | 267 kts | 351° |
| 2026-05-01 11:12 | -35.20176 | 149.18001 | 6380 ft | 279 kts | 325° |
| 2026-05-01 11:12 | -35.19068 | 149.16215 | 8131 ft | 255 kts | 293° |
| 2026-05-01 11:13 | -35.18813 | 149.14058 | 9212 ft | 273 kts | 271° |
| 2026-05-01 11:13 | -35.18981 | 149.11679 | 10129 ft | 273 kts | 265° |
| 2026-05-01 11:13 | -35.19262 | 149.09400 | 11174 ft | 274 kts | 263° |
| 2026-05-01 11:13 | -35.19582 | 149.07071 | 11915 ft | 280 kts | 263° |
| 2026-05-01 11:14 | -35.19923 | 149.04721 | 12762 ft | 282 kts | 263° |
| 2026-05-01 11:14 | -35.20276 | 149.02370 | 13824 ft | 273 kts | 263° |
| 2026-05-01 11:14 | -35.20635 | 149.00112 | 14762 ft | 273 kts | 262° |
| 2026-05-01 11:14 | -35.21001 | 148.97813 | 15503 ft | 276 kts | 262° |
| 2026-05-01 11:15 | -35.21363 | 148.95498 | 16292 ft | 278 kts | 262° |
| 2026-05-01 11:15 | -35.21727 | 148.93148 | 17078 ft | 281 kts | 262° |
| 2026-05-01 11:15 | -35.22304 | 148.90854 | 17768 ft | 290 kts | 241° |
| 2026-05-01 11:15 | -35.23731 | 148.89092 | 18540 ft | 296 kts | 219° |
| 2026-05-01 11:16 | -35.25409 | 148.87602 | 19196 ft | 299 kts | 219° |
| 2026-05-01 11:16 | -35.27022 | 148.85993 | 19877 ft | 299 kts | 224° |
| 2026-05-01 11:16 | -35.28531 | 148.84231 | 20550 ft | 302 kts | 226° |
| 2026-05-01 11:16 | -35.30106 | 148.82391 | 20689 ft | 326 kts | 225° |
| 2026-05-01 11:17 | -35.31849 | 148.80455 | 20710 ft | 350 kts | 224° |
| 2026-05-01 11:17 | -35.33703 | 148.78416 | 21084 ft | 360 kts | 224° |
| 2026-05-01 11:17 | -35.35552 | 148.76345 | 21760 ft | 361 kts | 225° |
| 2026-05-01 11:17 | -35.37385 | 148.74277 | 22356 ft | 364 kts | 225° |
| 2026-05-01 11:18 | -35.39263 | 148.72167 | 22984 ft | 367 kts | 225° |
| 2026-05-01 11:18 | -35.41156 | 148.70048 | 23597 ft | 369 kts | 225° |
| 2026-05-01 11:18 | -35.43057 | 148.67913 | 24142 ft | 373 kts | 225° |
| 2026-05-01 11:18 | -35.44990 | 148.65736 | 24388 ft | 380 kts | 225° |
| 2026-05-01 11:19 | -35.46943 | 148.63541 | 24385 ft | 380 kts | 225° |
| 2026-05-01 11:19 | -35.48880 | 148.61361 | 24389 ft | 376 kts | 225° |
| 2026-05-01 11:19 | -35.50806 | 148.59193 | 24386 ft | 374 kts | 225° |
| 2026-05-01 11:19 | -35.52720 | 148.57033 | 24378 ft | 373 kts | 225° |
| 2026-05-01 11:20 | -35.54631 | 148.54880 | 24390 ft | 373 kts | 225° |
| 2026-05-01 11:20 | -35.56543 | 148.52719 | 24390 ft | 374 kts | 225° |
| 2026-05-01 11:20 | -35.58463 | 148.50550 | 24413 ft | 377 kts | 225° |
| 2026-05-01 11:20 | -35.60391 | 148.48373 | 25020 ft | 375 kts | 225° |
| 2026-05-01 11:21 | -35.62312 | 148.46201 | 25498 ft | 378 kts | 225° |
| 2026-05-01 11:21 | -35.64229 | 148.44029 | 25959 ft | 380 kts | 225° |
| 2026-05-01 11:21 | -35.66176 | 148.41822 | 26476 ft | 381 kts | 225° |
| 2026-05-01 11:21 | -35.68133 | 148.39605 | 26955 ft | 383 kts | 225° |
| 2026-05-01 11:22 | -35.70095 | 148.37381 | 27429 ft | 384 kts | 225° |
| 2026-05-01 11:22 | -35.72068 | 148.35140 | 27879 ft | 386 kts | 225° |
| 2026-05-01 11:22 | -35.74047 | 148.32893 | 28322 ft | 387 kts | 225° |
| 2026-05-01 11:22 | -35.76034 | 148.30635 | 28723 ft | 389 kts | 225° |
| 2026-05-01 11:23 | -35.78022 | 148.28374 | 29264 ft | 387 kts | 225° |
| 2026-05-01 11:23 | -35.79991 | 148.26132 | 29829 ft | 384 kts | 225° |
| 2026-05-01 11:23 | -35.81951 | 148.23900 | 30378 ft | 382 kts | 225° |
| 2026-05-01 11:23 | -35.83897 | 148.21682 | 30835 ft | 380 kts | 225° |
| 2026-05-01 11:24 | -35.85832 | 148.19474 | 31272 ft | 379 kts | 225° |
| 2026-05-01 11:24 | -35.87766 | 148.17267 | 31657 ft | 378 kts | 225° |
| 2026-05-01 11:24 | -35.91591 | 148.12895 | 32359 ft | 380 kts | 226° |
| 2026-05-01 11:25 | -35.93536 | 148.10669 | 32370 ft | 381 kts | 226° |
| 2026-05-01 11:25 | -35.99411 | 148.03937 | 32366 ft | 396 kts | 225° |
| 2026-05-01 11:26 | -36.05614 | 147.96820 | 32357 ft | 409 kts | 225° |
| 2026-05-01 11:27 | -36.09779 | 147.92031 | 32349 ft | 407 kts | 226° |
| 2026-05-01 11:27 | -36.13894 | 147.87262 | 32347 ft | 408 kts | 228° |
| 2026-05-01 11:28 | -36.17273 | 147.81668 | 32347 ft | 406 kts | 239° |
| 2026-05-01 11:28 | -36.20407 | 147.75838 | 32348 ft | 406 kts | 238° |
| 2026-05-01 11:29 | -36.25086 | 147.67093 | 32344 ft | 405 kts | 239° |
| 2026-05-01 11:30 | -36.29748 | 147.58366 | 32336 ft | 408 kts | 239° |
| 2026-05-01 11:30 | -36.32935 | 147.52533 | 32326 ft | 410 kts | 232° |
| 2026-05-01 11:30 | -36.35085 | 147.50182 | 32337 ft | 415 kts | 219° |
| 2026-05-01 11:31 | -36.37582 | 147.48364 | 32340 ft | 419 kts | 208° |
| 2026-05-01 11:31 | -36.43212 | 147.46266 | 32347 ft | 425 kts | 195° |
| 2026-05-01 11:32 | -36.49046 | 147.44963 | 32355 ft | 426 kts | 193° |
| 2026-05-01 11:32 | -36.54909 | 147.43782 | 32352 ft | 427 kts | 192° |
| 2026-05-01 11:33 | -36.60735 | 147.42462 | 32333 ft | 421 kts | 202° |
| 2026-05-01 11:33 | -36.63261 | 147.40785 | 32356 ft | 415 kts | 216° |
| 2026-05-01 11:33 | -36.65535 | 147.38594 | 32362 ft | 413 kts | 225° |
| 2026-05-01 11:34 | -36.69014 | 147.32956 | 32356 ft | 411 kts | 244° |
| 2026-05-01 11:34 | -36.70755 | 147.26251 | 32357 ft | 406 kts | 261° |
| 2026-05-01 11:35 | -36.71735 | 147.19367 | 32354 ft | 406 kts | 261° |
| 2026-05-01 11:35 | -36.72767 | 147.12463 | 32353 ft | 404 kts | 261° |
| 2026-05-01 11:36 | -36.73773 | 147.05538 | 32345 ft | 408 kts | 261° |
| 2026-05-01 11:36 | -36.74623 | 146.99734 | 32348 ft | 409 kts | 261° |
| 2026-05-01 11:37 | -36.75638 | 146.92744 | 32347 ft | 408 kts | 261° |
| 2026-05-01 11:37 | -36.76646 | 146.85776 | 32346 ft | 408 kts | 262° |
| 2026-05-01 11:38 | -36.77648 | 146.78815 | 32350 ft | 408 kts | 262° |
| 2026-05-01 11:38 | -36.78653 | 146.71815 | 32248 ft | 413 kts | 262° |
| 2026-05-01 11:38 | -36.79162 | 146.68249 | 31728 ft | 417 kts | 262° |
| 2026-05-01 11:39 | -36.79800 | 146.64747 | 31206 ft | 412 kts | 255° |
| 2026-05-01 11:39 | -36.80860 | 146.61432 | 30693 ft | 410 kts | 246° |
| 2026-05-01 11:39 | -36.82299 | 146.58365 | 30160 ft | 409 kts | 239° |
| 2026-05-01 11:39 | -36.83844 | 146.55402 | 29584 ft | 406 kts | 239° |
| 2026-05-01 11:40 | -36.85349 | 146.52484 | 29023 ft | 404 kts | 239° |
| 2026-05-01 11:40 | -36.86863 | 146.49544 | 28489 ft | 401 kts | 240° |
| 2026-05-01 11:40 | -36.88361 | 146.46645 | 28146 ft | 396 kts | 239° |
| 2026-05-01 11:40 | -36.89858 | 146.43744 | 27605 ft | 398 kts | 240° |
| 2026-05-01 11:41 | -36.91352 | 146.40846 | 27083 ft | 395 kts | 240° |
| 2026-05-01 11:41 | -36.92834 | 146.37966 | 26572 ft | 392 kts | 240° |
| 2026-05-01 11:41 | -36.94305 | 146.35108 | 26056 ft | 390 kts | 240° |
| 2026-05-01 11:41 | -36.95764 | 146.32267 | 25555 ft | 387 kts | 240° |
| 2026-05-01 11:42 | -36.97216 | 146.29441 | 25055 ft | 385 kts | 241° |
| 2026-05-01 11:42 | -36.98658 | 146.26632 | 24568 ft | 381 kts | 241° |
| 2026-05-01 11:42 | -37.00089 | 146.23842 | 23990 ft | 380 kts | 241° |
| 2026-05-01 11:42 | -37.01517 | 146.21047 | 23295 ft | 385 kts | 241° |
| 2026-05-01 11:43 | -37.02986 | 146.18172 | 22581 ft | 397 kts | 241° |
| 2026-05-01 11:43 | -37.04485 | 146.15245 | 21895 ft | 399 kts | 240° |
| 2026-05-01 11:43 | -37.05960 | 146.12369 | 21392 ft | 394 kts | 240° |
| 2026-05-01 11:44 | -37.08884 | 146.06633 | 21248 ft | 394 kts | 241° |
| 2026-05-01 11:44 | -37.10373 | 146.03702 | 20726 ft | 396 kts | 240° |
| 2026-05-01 11:44 | -37.11842 | 146.00832 | 20114 ft | 387 kts | 240° |
| 2026-05-01 11:44 | -37.13272 | 145.98025 | 19650 ft | 380 kts | 241° |
| 2026-05-01 11:45 | -37.14690 | 145.95224 | 19204 ft | 381 kts | 240° |
| 2026-05-01 11:45 | -37.16114 | 145.92420 | 18769 ft | 380 kts | 240° |
| 2026-05-01 11:45 | -37.17531 | 145.89630 | 18297 ft | 378 kts | 240° |
| 2026-05-01 11:45 | -37.18942 | 145.86850 | 17791 ft | 376 kts | 240° |
| 2026-05-01 11:46 | -37.20441 | 145.84173 | 17292 ft | 376 kts | 232° |
| 2026-05-01 11:46 | -37.22327 | 145.81887 | 16802 ft | 377 kts | 221° |
| 2026-05-01 11:46 | -37.24414 | 145.79908 | 16334 ft | 375 kts | 219° |
| 2026-05-01 11:46 | -37.26481 | 145.77923 | 15875 ft | 373 kts | 220° |
| 2026-05-01 11:47 | -37.28514 | 145.75967 | 15415 ft | 371 kts | 219° |
| 2026-05-01 11:47 | -37.30565 | 145.74006 | 14969 ft | 370 kts | 219° |
| 2026-05-01 11:47 | -37.32611 | 145.72052 | 14527 ft | 368 kts | 219° |
| 2026-05-01 11:47 | -37.34638 | 145.70106 | 14084 ft | 366 kts | 219° |
| 2026-05-01 11:48 | -37.36656 | 145.68170 | 13591 ft | 363 kts | 219° |
| 2026-05-01 11:48 | -37.38656 | 145.66248 | 13093 ft | 361 kts | 219° |
| 2026-05-01 11:48 | -37.40644 | 145.64340 | 12613 ft | 358 kts | 219° |
| 2026-05-01 11:48 | -37.42622 | 145.62436 | 12138 ft | 356 kts | 219° |
| 2026-05-01 11:49 | -37.44585 | 145.60546 | 11675 ft | 353 kts | 219° |
| 2026-05-01 11:49 | -37.46535 | 145.58671 | 11216 ft | 351 kts | 219° |
| 2026-05-01 11:49 | -37.48442 | 145.56834 | 10760 ft | 349 kts | 220° |
| 2026-05-01 11:49 | -37.50366 | 145.54976 | 10294 ft | 348 kts | 220° |
| 2026-05-01 11:50 | -37.52284 | 145.53127 | 9792 ft | 346 kts | 220° |
| 2026-05-01 11:50 | -37.54186 | 145.51287 | 9287 ft | 343 kts | 220° |
| 2026-05-01 11:50 | -37.56060 | 145.49485 | 9025 ft | 332 kts | 220° |
| 2026-05-01 11:50 | -37.57904 | 145.47704 | 9027 ft | 338 kts | 220° |
| 2026-05-01 11:51 | -37.59772 | 145.45900 | 9014 ft | 338 kts | 220° |
| 2026-05-01 11:51 | -37.61607 | 145.44139 | 9013 ft | 322 kts | 220° |
| 2026-05-01 11:51 | -37.63330 | 145.42469 | 8893 ft | 305 kts | 220° |
| 2026-05-01 11:51 | -37.64976 | 145.40877 | 8624 ft | 293 kts | 220° |
| 2026-05-01 11:52 | -37.66572 | 145.39335 | 8357 ft | 285 kts | 220° |
| 2026-05-01 11:52 | -37.68135 | 145.37822 | 8101 ft | 282 kts | 220° |
| 2026-05-01 11:52 | -37.69689 | 145.36302 | 7840 ft | 280 kts | 223° |
| 2026-05-01 11:52 | -37.70814 | 145.34393 | 7577 ft | 274 kts | 249° |
| 2026-05-01 11:53 | -37.71292 | 145.32100 | 7221 ft | 268 kts | 269° |
| 2026-05-01 11:53 | -37.71422 | 145.29772 | 6768 ft | 263 kts | 270° |
| 2026-05-01 11:53 | -37.71554 | 145.27505 | 6241 ft | 255 kts | 270° |
| 2026-05-01 11:53 | -37.71684 | 145.25298 | 5706 ft | 249 kts | 271° |
| 2026-05-01 11:54 | -37.71816 | 145.23136 | 5208 ft | 244 kts | 271° |
| 2026-05-01 11:54 | -37.71945 | 145.21056 | 4915 ft | 231 kts | 271° |
| 2026-05-01 11:54 | -37.72061 | 145.19040 | 4478 ft | 229 kts | 272° |
| 2026-05-01 11:54 | -37.72178 | 145.17035 | 4051 ft | 228 kts | 272° |
| 2026-05-01 11:55 | -37.72296 | 145.15044 | 3622 ft | 227 kts | 272° |
| 2026-05-01 11:55 | -37.72415 | 145.13057 | 3204 ft | 227 kts | 272° |
| 2026-05-01 11:55 | -37.72534 | 145.11102 | 2990 ft | 216 kts | 275° |
| 2026-05-01 11:55 | -37.72591 | 145.09282 | 2948 ft | 202 kts | 275° |
| 2026-05-01 11:56 | -37.72641 | 145.07534 | 2721 ft | 201 kts | 275° |
| 2026-05-01 11:56 | -37.72691 | 145.05768 | 2456 ft | 201 kts | 275° |
| 2026-05-01 11:56 | -37.72742 | 145.04049 | 2198 ft | 186 kts | 275° |
| 2026-05-01 11:56 | -37.72787 | 145.02508 | 1951 ft | 163 kts | 277° |
| 2026-05-01 11:57 | -37.72820 | 145.01186 | 1751 ft | 145 kts | 276° |
| 2026-05-01 11:57 | -37.72850 | 144.99930 | 1586 ft | 142 kts | 274° |
| 2026-05-01 11:57 | -37.72884 | 144.98696 | 1411 ft | 139 kts | 273° |
| 2026-05-01 11:57 | -37.72916 | 144.97486 | 1220 ft | 137 kts | 271° |
| 2026-05-01 11:58 | -37.72950 | 144.96294 | 1052 ft | 134 kts | 270° |
| 2026-05-01 11:58 | -37.72983 | 144.95120 | 861 ft | 132 kts | 271° |
| 2026-05-01 11:58 | -37.73045 | 144.92811 | 488 ft | 132 kts | 270° |
| 2026-05-01 11:59 | -37.73076 | 144.91645 | 320 ft | 133 kts | 270° |
| 2026-05-01 11:59 | -37.73104 | 144.90565 | 255 ft | 110 kts | 270° |
| 2026-05-01 11:59 | -37.73124 | 144.89769 | 267 ft | 56 kts | 267° |
| 2026-05-01 12:00 | -37.73116 | 144.89374 | 284 ft | 6 kts | 320° |
| 2026-05-01 12:00 | -37.73081 | 144.89371 | 284 ft | 7 kts | 7° |
| 2026-05-01 12:00 | -37.72933 | 144.89394 | 274 ft | 15 kts | 6° |
| 2026-05-01 12:01 | -37.72850 | 144.89348 | 266 ft | 15 kts | 274° |
| 2026-05-01 12:01 | -37.72883 | 144.89287 | 270 ft | 5 kts | 174° |
| 2026-05-01 12:01 | -37.72886 | 144.89290 | 270 ft | 0 kts | 138° |
| 2026-05-01 12:01 | -37.72886 | 144.89295 | 270 ft | 2 kts | 91° |
| 2026-05-01 12:02 | -37.72885 | 144.89297 | 270 ft | 0 kts | 54° |